Disclaimer

Please do not use the information listed here in-flight or in-navigation, as they are not provided to us by the airports but are provided by volunteers, so they might be outdated.

Search


Regions


Airport information page

Radio informations:
Tower (TWR) - 118.8 MHz

Airport informations:
Latitude: 16° 24' 05.40" N
Longitude: 107° 42' 09.41" E
Elevation: 48 feet - 15 meters
Operating hours: N/A
Operating agency: Civil government, landing fees and diplomatic clearance may be required
Timezone: UTC+7
Fuel: N/A

Runway information:
09/27 - 8775 x 130 feet< - >2675 x 40 meters

Recent METARs:
VVPB 151100Z 09008KT 9999 FEW015 SCT050 27/24 Q1012 NOSIG
VVPB 151200Z 06006KT 9999 FEW015 SCT060 27/24 Q1013 NOSIG
VVPB 151230Z 06007KT 9999 FEW015 SCT060 27/24 Q1013 NOSIG

Airport on the map: